createdAt,value
2022-11-15T00:00:56.188Z,96.66
2022-11-15T00:01:56.317Z,96.76
2022-11-15T00:02:56.163Z,96.96
2022-11-15T00:03:56.152Z,96.76
2022-11-15T00:04:56.137Z,96.66
2022-11-15T00:06:56.163Z,96.66
2022-11-15T00:07:56.464Z,96.66
2022-11-15T00:08:56.088Z,96.45
2022-11-15T00:09:56.076Z,96.35
2022-11-15T00:10:56.064Z,96.61
2022-11-15T00:11:56.050Z,96.30
2022-11-15T00:12:56.038Z,96.20
2022-11-15T00:13:56.025Z,96.00
2022-11-15T00:14:56.012Z,96.04
2022-11-15T00:15:56.004Z,96.25
2022-11-15T00:17:55.999Z,96.30
2022-11-15T00:18:55.960Z,96.30
2022-11-15T00:19:55.950Z,96.30
2022-11-15T00:20:55.936Z,95.89
2022-11-15T00:21:55.926Z,96.09
2022-11-15T00:22:55.909Z,96.00
2022-11-15T00:23:55.899Z,96.00
2022-11-15T00:24:55.885Z,95.89
2022-11-15T00:25:55.874Z,96.00
2022-11-15T00:26:55.860Z,95.95
2022-11-15T00:28:55.834Z,96.77
2022-11-15T00:29:55.824Z,96.56
2022-11-15T00:30:55.808Z,97.08
2022-11-15T00:31:55.797Z,97.29
2022-11-15T00:32:55.780Z,97.55
2022-11-15T00:33:55.793Z,97.55
2022-11-15T00:34:55.755Z,97.44
2022-11-15T00:35:55.743Z,97.30
2022-11-15T00:36:55.727Z,97.30
2022-11-15T00:37:55.717Z,97.19
2022-11-15T00:39:55.694Z,96.64
2022-11-15T00:40:55.676Z,96.43
2022-11-15T00:41:55.667Z,96.23
2022-11-15T00:42:55.652Z,96.23
2022-11-15T00:43:55.639Z,96.39
2022-11-15T00:44:55.624Z,96.39
2022-11-15T00:45:55.614Z,96.39
2022-11-15T00:46:55.598Z,96.34
2022-11-15T00:47:55.588Z,96.14
2022-11-15T00:48:55.578Z,96.14
2022-11-15T00:50:55.546Z,96.03
2022-11-15T00:51:55.535Z,95.83
2022-11-15T00:52:55.521Z,95.83
2022-11-15T00:53:55.509Z,95.69
2022-11-15T00:54:55.495Z,95.89
2022-11-15T00:55:55.482Z,95.78
2022-11-15T00:56:55.469Z,95.48
2022-11-15T00:57:55.455Z,95.58
2022-11-15T00:58:55.441Z,95.84
2022-11-15T00:59:55.428Z,95.53
2022-11-15T01:01:55.401Z,95.12
2022-11-15T01:02:55.389Z,94.88
2022-11-15T01:04:00.907Z,94.47
2022-11-15T01:04:55.358Z,94.58
2022-11-15T01:05:55.373Z,94.47
2022-11-15T01:06:55.371Z,94.37
2022-11-15T01:07:55.321Z,94.26
2022-11-15T01:08:55.308Z,94.26
2022-11-15T01:09:55.296Z,94.17
2022-11-15T01:10:55.282Z,94.17
2022-11-15T01:12:55.255Z,94.17
2022-11-15T01:13:55.243Z,94.17
2022-11-15T01:14:55.228Z,94.37
2022-11-15T01:15:55.218Z,94.47
2022-11-15T01:16:55.206Z,94.26
2022-11-15T01:17:55.192Z,94.26
2022-11-15T01:18:55.178Z,94.37
2022-11-15T01:19:55.165Z,94.47
2022-11-15T01:20:55.151Z,94.22
2022-11-15T01:21:55.162Z,94.22
2022-11-15T01:23:55.113Z,94.12
2022-11-15T01:24:55.101Z,94.22
2022-11-15T01:25:55.090Z,94.32
2022-11-15T01:26:55.072Z,93.81
2022-11-15T01:27:55.062Z,93.81
2022-11-15T01:28:55.049Z,93.97
2022-11-15T01:29:55.037Z,93.57
2022-11-15T01:30:55.022Z,93.77
2022-11-15T01:31:55.019Z,93.26
2022-11-15T01:32:54.994Z,93.26
2022-11-15T01:34:54.974Z,93.16
2022-11-15T01:35:54.957Z,93.36
2022-11-15T01:36:54.948Z,93.06
2022-11-15T01:37:54.956Z,93.06
2022-11-15T01:38:54.921Z,93.06
2022-11-15T01:39:54.907Z,92.85
2022-11-15T01:40:54.894Z,92.85
2022-11-15T01:41:54.880Z,92.50
2022-11-15T01:42:54.870Z,92.40
2022-11-15T01:43:54.853Z,92.19
2022-11-15T01:45:54.829Z,91.69
2022-11-15T01:46:54.817Z,91.69
2022-11-15T01:47:54.802Z,91.58
2022-11-15T01:48:54.792Z,91.38
2022-11-15T01:49:54.776Z,91.28
2022-11-15T01:50:54.767Z,91.28
2022-11-15T01:51:54.750Z,91.18
2022-11-15T01:52:54.742Z,91.18
2022-11-15T01:53:54.749Z,90.97
2022-11-15T01:54:54.713Z,90.97
2022-11-15T01:56:54.691Z,90.93
2022-11-15T01:57:54.684Z,90.77
2022-11-15T01:58:54.662Z,90.87
2022-11-15T01:59:54.648Z,90.97
2022-11-15T02:00:54.672Z,90.87
2022-11-15T02:01:54.621Z,90.97
2022-11-15T02:02:54.609Z,90.87
2022-11-15T02:03:54.596Z,90.83
2022-11-15T02:04:54.585Z,90.52
2022-11-15T02:05:54.571Z,90.63
2022-11-15T02:07:54.546Z,90.67
2022-11-15T02:08:54.533Z,90.93
2022-11-15T02:09:54.541Z,90.77
2022-11-15T02:10:54.510Z,91.18
2022-11-15T02:11:54.493Z,90.97
2022-11-15T02:12:54.480Z,91.28
2022-11-15T02:13:54.467Z,91.38
2022-11-15T02:14:54.454Z,91.28
2022-11-15T02:15:56.953Z,91.38
2022-11-15T02:16:54.428Z,91.48
2022-11-15T02:18:54.402Z,91.38
2022-11-15T02:19:54.387Z,91.38
2022-11-15T02:20:54.376Z,91.63
2022-11-15T02:22:54.351Z,91.48
2022-11-15T02:23:54.338Z,91.28
2022-11-15T02:24:54.325Z,91.58
2022-11-15T02:25:54.332Z,91.38
2022-11-15T02:26:54.299Z,91.38
2022-11-15T02:27:54.284Z,91.73
2022-11-15T02:29:54.259Z,91.58
2022-11-15T02:30:54.247Z,91.48
2022-11-15T02:31:54.231Z,91.38
2022-11-15T02:32:54.220Z,91.48
2022-11-15T02:33:54.210Z,91.52
2022-11-15T02:34:54.203Z,91.43
2022-11-15T02:35:54.192Z,90.91
2022-11-15T02:36:54.171Z,90.71
2022-11-15T02:37:54.156Z,90.50
2022-11-15T02:38:54.145Z,90.75
2022-11-15T02:40:54.117Z,92.38
2022-11-15T02:41:54.127Z,92.08
2022-11-15T02:42:54.094Z,92.69
2022-11-15T02:43:54.079Z,92.99
2022-11-15T02:44:54.078Z,93.06
2022-11-15T02:45:54.050Z,92.85
2022-11-15T02:46:54.041Z,92.85
2022-11-15T02:47:54.025Z,92.65
2022-11-15T02:48:54.014Z,92.54
2022-11-15T02:49:53.998Z,92.44
2022-11-15T02:51:53.972Z,92.44
2022-11-15T02:52:53.961Z,92.24
2022-11-15T02:53:53.946Z,92.14
2022-11-15T02:54:53.938Z,92.09
2022-11-15T02:55:53.922Z,91.89
2022-11-15T02:56:53.910Z,92.04
2022-11-15T02:57:53.917Z,92.19
2022-11-15T02:58:53.883Z,91.79
2022-11-15T02:59:53.869Z,91.79
2022-11-15T03:00:53.906Z,91.69
2022-11-15T03:02:53.831Z,91.58
2022-11-15T03:03:53.818Z,91.38
2022-11-15T03:04:53.805Z,91.28
2022-11-15T03:05:53.799Z,90.97
2022-11-15T03:06:53.816Z,91.69
2022-11-15T03:07:58.078Z,91.79
2022-11-15T03:08:53.758Z,91.93
2022-11-15T03:09:53.744Z,91.93
2022-11-15T03:10:53.732Z,92.04
2022-11-15T03:11:53.713Z,92.34
2022-11-15T03:13:53.713Z,92.75
2022-11-15T03:14:53.677Z,92.79
2022-11-15T03:15:53.661Z,92.99
2022-11-15T03:16:53.651Z,93.10
2022-11-15T03:17:53.637Z,93.81
2022-11-15T03:18:53.627Z,93.61
2022-11-15T03:19:53.611Z,93.87
2022-11-15T03:20:53.599Z,93.46
2022-11-15T03:21:53.584Z,93.57
2022-11-15T03:22:53.572Z,93.46
2022-11-15T03:24:53.549Z,92.95
2022-11-15T03:25:53.533Z,92.85
2022-11-15T03:26:53.522Z,92.91
2022-11-15T03:27:53.507Z,92.71
2022-11-15T03:28:53.497Z,92.30
2022-11-15T03:29:53.505Z,91.95
2022-11-15T03:30:53.472Z,91.65
2022-11-15T03:31:53.456Z,91.54
2022-11-15T03:32:53.444Z,91.44
2022-11-15T03:33:53.430Z,90.93
2022-11-15T03:35:53.403Z,90.38
2022-11-15T03:36:53.395Z,90.17
2022-11-15T03:37:53.405Z,90.28
2022-11-15T03:38:53.368Z,90.17
2022-11-15T03:39:53.352Z,89.97
2022-11-15T03:40:53.343Z,89.77
2022-11-15T03:41:53.326Z,89.77
2022-11-15T03:42:53.315Z,89.97
2022-11-15T03:43:53.301Z,89.87
2022-11-15T03:44:53.293Z,89.66
2022-11-15T03:46:53.264Z,89.66
2022-11-15T03:47:53.249Z,89.52
2022-11-15T03:48:53.239Z,89.42
2022-11-15T03:49:53.223Z,89.52
2022-11-15T03:50:53.212Z,89.42
2022-11-15T03:51:53.199Z,89.42
2022-11-15T03:52:53.186Z,89.42
2022-11-15T03:53:53.170Z,89.11
2022-11-15T03:54:53.162Z,89.31
2022-11-15T03:55:53.144Z,89.01
2022-11-15T03:57:53.120Z,88.91
2022-11-15T03:58:53.109Z,88.70
2022-11-15T03:59:53.110Z,88.81
2022-11-15T04:00:53.112Z,88.81
2022-11-15T04:01:53.091Z,88.81
2022-11-15T04:02:53.057Z,88.81
2022-11-15T04:03:53.043Z,89.01
2022-11-15T04:04:53.033Z,88.91
2022-11-15T04:05:53.014Z,89.01
2022-11-15T04:06:53.090Z,88.61
2022-11-15T04:08:52.977Z,88.61
2022-11-15T04:09:52.963Z,88.61
2022-11-15T04:10:52.954Z,88.75
2022-11-15T04:11:52.938Z,88.64
2022-11-15T04:12:52.926Z,88.70
2022-11-15T04:13:52.910Z,88.61
2022-11-15T04:14:52.905Z,88.64
2022-11-15T04:15:52.884Z,88.75
2022-11-15T04:16:52.874Z,88.54
2022-11-15T04:17:52.885Z,88.85
2022-11-15T04:19:52.837Z,88.75
2022-11-15T04:20:52.823Z,88.75
2022-11-15T04:21:52.808Z,88.95
2022-11-15T04:22:52.797Z,88.85
2022-11-15T04:23:52.784Z,88.75
2022-11-15T04:24:52.770Z,88.79
2022-11-15T04:25:52.756Z,88.69
2022-11-15T04:26:52.745Z,88.89
2022-11-15T04:27:52.729Z,89.09
2022-11-15T04:28:52.718Z,88.89
2022-11-15T04:30:52.698Z,88.99
2022-11-15T04:31:52.679Z,89.20
2022-11-15T04:32:52.667Z,89.30
2022-11-15T04:33:52.675Z,89.30
2022-11-15T04:34:52.642Z,89.50
2022-11-15T04:35:52.626Z,89.50
2022-11-15T04:36:52.622Z,89.70
2022-11-15T04:37:52.609Z,89.75
2022-11-15T04:38:52.592Z,89.95
2022-11-15T04:39:52.577Z,90.16
2022-11-15T04:41:52.553Z,90.36
2022-11-15T04:42:52.538Z,90.46
2022-11-15T04:43:52.522Z,90.46
2022-11-15T04:44:52.512Z,90.61
2022-11-15T04:45:52.498Z,90.81
2022-11-15T04:46:52.485Z,91.06
2022-11-15T04:47:52.471Z,91.57
2022-11-15T04:48:57.961Z,91.97
2022-11-15T04:49:54.469Z,92.02
2022-11-15T04:50:52.433Z,92.23
2022-11-15T04:52:52.427Z,92.53
2022-11-15T04:53:52.393Z,92.63
2022-11-15T04:54:52.384Z,92.98
2022-11-15T04:55:52.367Z,92.88
2022-11-15T04:56:52.356Z,93.18
2022-11-15T04:57:52.342Z,93.39
2022-11-15T04:58:52.331Z,93.54
2022-11-15T04:59:52.315Z,93.64
2022-11-15T05:00:52.370Z,93.74
2022-11-15T05:01:52.290Z,93.95
2022-11-15T05:03:52.266Z,94.15
2022-11-15T05:04:52.254Z,94.05
2022-11-15T05:05:52.266Z,94.25
2022-11-15T05:06:52.303Z,94.36
2022-11-15T05:07:52.212Z,94.36
2022-11-15T05:08:52.201Z,94.36
2022-11-15T05:09:52.186Z,94.46
2022-11-15T05:10:52.176Z,94.46
2022-11-15T05:11:52.159Z,94.46
2022-11-15T05:12:52.147Z,94.25
2022-11-15T05:14:52.122Z,93.95
2022-11-15T05:15:52.108Z,93.95
2022-11-15T05:16:52.096Z,93.70
2022-11-15T05:17:52.083Z,93.33
2022-11-15T05:18:52.069Z,93.43
2022-11-15T05:19:52.057Z,93.43
2022-11-15T05:20:52.048Z,93.74
2022-11-15T05:21:52.052Z,93.99
2022-11-15T05:22:52.019Z,93.99
2022-11-15T05:23:52.003Z,94.19
2022-11-15T05:25:51.977Z,94.65
2022-11-15T05:26:51.964Z,94.54
2022-11-15T05:27:51.950Z,94.54
2022-11-15T05:28:51.940Z,94.75
2022-11-15T05:29:51.923Z,95.06
2022-11-15T05:30:51.917Z,95.16
2022-11-15T05:31:51.898Z,95.10
2022-11-15T05:32:51.892Z,95.16
2022-11-15T05:33:51.871Z,95.20
2022-11-15T05:34:51.858Z,95.31
2022-11-15T05:36:51.833Z,95.81
2022-11-15T05:37:51.838Z,95.81
2022-11-15T05:38:51.805Z,96.02
2022-11-15T05:39:51.792Z,95.81
2022-11-15T05:40:51.784Z,95.98
2022-11-15T05:41:51.766Z,96.08
2022-11-15T05:42:51.752Z,96.08
2022-11-15T05:43:51.737Z,95.98
2022-11-15T05:44:51.725Z,95.57
2022-11-15T05:45:51.712Z,95.36
2022-11-15T05:47:51.684Z,95.57
2022-11-15T05:48:51.673Z,95.36
2022-11-15T05:49:51.659Z,95.42
2022-11-15T05:50:51.645Z,95.32
2022-11-15T05:51:51.631Z,95.36
2022-11-15T05:52:51.616Z,95.22
2022-11-15T05:53:51.650Z,95.32
2022-11-15T05:54:51.589Z,95.11
2022-11-15T05:55:51.578Z,95.01
2022-11-15T05:56:51.565Z,95.01
2022-11-15T05:58:55.512Z,95.22
2022-11-15T05:59:53.522Z,95.32
2022-11-15T06:00:51.508Z,95.32
2022-11-15T06:01:51.590Z,95.57
2022-11-15T06:02:51.484Z,95.57
2022-11-15T06:03:51.472Z,95.57
2022-11-15T06:04:51.456Z,95.62
2022-11-15T06:05:51.444Z,95.52
2022-11-15T06:06:51.511Z,95.42
2022-11-15T06:07:51.417Z,95.22
2022-11-15T06:09:51.414Z,94.50
2022-11-15T06:10:51.377Z,94.19
2022-11-15T06:11:51.364Z,94.40
2022-11-15T06:12:51.350Z,94.29
2022-11-15T06:13:51.337Z,94.40
2022-11-15T06:14:51.321Z,94.19
2022-11-15T06:15:51.311Z,94.09
2022-11-15T06:16:51.297Z,93.89
2022-11-15T06:17:51.283Z,93.89
2022-11-15T06:18:51.268Z,93.68
2022-11-15T06:20:51.248Z,94.19
2022-11-15T06:21:51.233Z,94.19
2022-11-15T06:22:51.216Z,94.70
2022-11-15T06:23:51.204Z,94.81
2022-11-15T06:24:51.188Z,94.70
2022-11-15T06:25:51.202Z,94.81
2022-11-15T06:26:51.161Z,94.91
2022-11-15T06:27:51.151Z,94.81
2022-11-15T06:28:51.136Z,94.70
2022-11-15T06:29:51.123Z,95.11
2022-11-15T06:31:51.097Z,95.01
2022-11-15T06:32:51.083Z,95.11
2022-11-15T06:33:51.071Z,94.91
2022-11-15T06:34:51.058Z,94.70
2022-11-15T06:35:51.044Z,94.70
2022-11-15T06:36:51.029Z,95.11
2022-11-15T06:37:51.017Z,95.73
2022-11-15T06:38:51.005Z,95.93
2022-11-15T06:39:50.995Z,95.83
2022-11-15T06:40:50.978Z,95.42
2022-11-15T06:42:50.950Z,94.91
2022-11-15T06:43:50.937Z,95.42
2022-11-15T06:44:50.923Z,95.01
2022-11-15T06:45:50.914Z,95.22
2022-11-15T06:46:50.898Z,95.93
2022-11-15T06:47:50.888Z,96.24
2022-11-15T06:48:50.871Z,95.73
2022-11-15T06:49:50.872Z,94.91
2022-11-15T06:50:50.849Z,94.50
2022-11-15T06:51:50.834Z,94.50
2022-11-15T06:53:50.809Z,94.50
2022-11-15T06:54:50.794Z,94.29
2022-11-15T06:55:55.043Z,94.19
2022-11-15T06:56:50.771Z,94.29
2022-11-15T06:57:50.778Z,94.29
2022-11-15T06:58:50.742Z,94.40
2022-11-15T06:59:50.730Z,94.19
2022-11-15T07:00:50.825Z,94.50
2022-11-15T07:01:50.773Z,94.29
2022-11-15T07:02:50.689Z,94.29
2022-11-15T07:04:50.663Z,94.60
2022-11-15T07:05:50.652Z,94.40
2022-11-15T07:06:50.713Z,94.09
2022-11-15T07:07:50.626Z,93.84
2022-11-15T07:08:50.612Z,93.64
2022-11-15T07:09:50.601Z,93.84
2022-11-15T07:10:50.585Z,93.59
2022-11-15T07:11:50.575Z,93.59
2022-11-15T07:12:50.561Z,93.59
2022-11-15T07:13:50.601Z,93.18
2022-11-15T07:15:50.522Z,92.53
2022-11-15T07:16:50.508Z,92.43
2022-11-15T07:17:50.497Z,92.32
2022-11-15T07:18:50.482Z,92.23
2022-11-15T07:19:50.475Z,92.02
2022-11-15T07:20:50.457Z,91.91
2022-11-15T07:21:50.445Z,92.12
2022-11-15T07:22:50.432Z,92.12
2022-11-15T07:23:50.423Z,91.82
2022-11-15T07:24:50.404Z,91.77
2022-11-15T07:26:50.379Z,91.57
2022-11-15T07:27:50.367Z,91.22
2022-11-15T07:28:50.353Z,90.91
2022-11-15T07:29:50.363Z,90.91
2022-11-15T07:30:50.329Z,90.71
2022-11-15T07:31:50.314Z,90.50
2022-11-15T07:32:50.304Z,90.50
2022-11-15T07:33:50.291Z,90.46
2022-11-15T07:34:50.275Z,90.26
2022-11-15T07:35:50.265Z,90.16
2022-11-15T07:37:50.239Z,89.20
2022-11-15T07:38:50.222Z,88.85
2022-11-15T07:39:50.212Z,87.59
2022-11-15T07:40:50.197Z,87.13
2022-11-15T07:41:50.186Z,86.32
2022-11-15T07:42:50.170Z,85.47
2022-11-15T07:43:50.160Z,84.96
2022-11-15T07:44:50.148Z,84.45
2022-11-15T07:45:53.458Z,84.96
2022-11-15T07:46:50.122Z,84.96
2022-11-15T07:48:50.100Z,85.51
2022-11-15T07:49:50.091Z,85.20
2022-11-15T07:50:50.072Z,85.81
2022-11-15T07:51:50.063Z,86.05
2022-11-15T07:52:50.045Z,86.87
2022-11-15T07:53:50.034Z,86.98
2022-11-15T07:54:50.023Z,87.22
2022-11-15T07:55:50.009Z,87.53
2022-11-15T07:56:49.995Z,88.03
2022-11-15T07:57:49.984Z,88.28
2022-11-15T07:59:49.961Z,88.89
2022-11-15T08:00:49.943Z,88.99
2022-11-15T08:01:50.090Z,88.99
2022-11-15T08:02:50.007Z,89.20
2022-11-15T08:03:49.907Z,89.40
2022-11-15T08:04:49.893Z,89.09
2022-11-15T08:05:49.883Z,88.89
2022-11-15T08:06:49.938Z,89.40
2022-11-15T08:07:52.639Z,89.30
2022-11-15T08:08:49.843Z,89.75
2022-11-15T08:10:49.816Z,89.81
2022-11-15T08:11:50.018Z,89.30
2022-11-15T08:12:49.866Z,88.64
2022-11-15T08:13:49.780Z,88.64
2022-11-15T08:14:49.770Z,88.44
2022-11-15T08:15:54.787Z,88.69
2022-11-15T08:16:49.739Z,88.59
2022-11-15T08:17:49.753Z,89.20
2022-11-15T08:18:49.713Z,89.05
2022-11-15T08:19:49.705Z,88.44
2022-11-15T08:21:49.679Z,87.48
2022-11-15T08:22:49.663Z,87.48
2022-11-15T08:23:49.650Z,87.38
2022-11-15T08:24:49.639Z,87.68
2022-11-15T08:25:49.626Z,87.48
2022-11-15T08:26:49.644Z,87.28
2022-11-15T08:27:49.603Z,87.59
2022-11-15T08:28:49.586Z,87.68
2022-11-15T08:29:49.575Z,87.54
2022-11-15T08:30:49.562Z,86.69
2022-11-15T08:32:49.535Z,84.78
2022-11-15T08:33:49.546Z,82.97
2022-11-15T08:34:49.509Z,81.07
2022-11-15T08:35:49.499Z,79.29
2022-11-15T08:36:49.481Z,77.40
2022-11-15T08:37:49.472Z,75.51
2022-11-15T08:38:49.460Z,73.69
2022-11-15T08:39:49.448Z,74.60
2022-11-15T08:40:49.430Z,75.57
2022-11-15T08:41:49.419Z,75.41
2022-11-15T08:43:49.397Z,77.61
2022-11-15T08:44:49.391Z,79.07
2022-11-15T08:45:49.376Z,79.27
2022-11-15T08:46:49.357Z,79.30
2022-11-15T08:47:53.995Z,80.15
2022-11-15T08:48:49.331Z,81.10
2022-11-15T08:49:49.344Z,82.06
2022-11-15T08:50:49.306Z,82.56
2022-11-15T08:51:49.299Z,83.31
2022-11-15T08:52:49.396Z,83.17
2022-11-15T08:54:49.255Z,83.34
2022-11-15T08:55:49.242Z,83.14
2022-11-15T08:56:49.242Z,83.75
2022-11-15T08:57:49.225Z,83.08
2022-11-15T08:58:49.205Z,83.28
2022-11-15T08:59:49.189Z,84.09
2022-11-15T09:00:49.180Z,83.17
2022-11-15T09:01:49.240Z,83.38
2022-11-15T09:02:49.151Z,84.13
2022-11-15T09:03:49.138Z,84.13
2022-11-15T09:05:49.134Z,84.53
2022-11-15T09:06:49.138Z,85.15
2022-11-15T09:07:49.085Z,84.84
2022-11-15T09:08:49.120Z,84.78
2022-11-15T09:09:49.059Z,85.69
2022-11-15T09:10:49.045Z,85.49
2022-11-15T09:11:49.035Z,85.29
2022-11-15T09:12:49.021Z,84.98
2022-11-15T09:13:49.007Z,85.25
2022-11-15T09:14:48.995Z,85.35
2022-11-15T09:16:48.969Z,84.09
2022-11-15T09:17:48.956Z,83.08
2022-11-15T09:18:48.942Z,84.19
2022-11-15T09:19:48.933Z,84.50
2022-11-15T09:20:48.915Z,83.99
2022-11-15T09:21:48.927Z,84.46
2022-11-15T09:22:48.889Z,83.85
2022-11-15T09:23:48.879Z,84.05
2022-11-15T09:24:48.863Z,83.34
2022-11-15T09:25:48.852Z,84.09
2022-11-15T09:27:48.827Z,84.15
2022-11-15T09:28:48.812Z,84.09
2022-11-15T09:29:48.799Z,84.09
2022-11-15T09:30:48.796Z,85.00
2022-11-15T09:31:48.776Z,85.07
2022-11-15T09:32:48.760Z,84.66
2022-11-15T09:33:48.747Z,83.54
2022-11-15T09:34:48.733Z,83.70
2022-11-15T09:35:48.724Z,83.40
2022-11-15T09:36:48.709Z,81.78
2022-11-15T09:38:48.684Z,82.22
2022-11-15T09:39:48.672Z,83.38
2022-11-15T09:40:48.656Z,83.68
2022-11-15T09:41:48.644Z,83.48
2022-11-15T09:42:48.630Z,83.34
2022-11-15T09:43:48.621Z,84.35
2022-11-15T09:44:48.603Z,84.05
2022-11-15T09:45:48.594Z,83.95
2022-11-15T09:46:48.578Z,84.56
2022-11-15T09:47:48.566Z,83.20
2022-11-15T09:49:49.472Z,82.89
2022-11-15T09:50:48.527Z,83.06
2022-11-15T09:51:48.622Z,82.45
2022-11-15T09:52:48.500Z,82.75
2022-11-15T09:54:30.375Z,82.11
2022-11-15T09:54:54.249Z,81.70
2022-11-15T09:55:48.465Z,81.94
2022-11-15T09:56:48.451Z,82.04
2022-11-15T09:57:48.439Z,81.70
2022-11-15T09:58:48.422Z,82.00
2022-11-15T10:00:48.758Z,80.79
2022-11-15T10:01:48.493Z,81.70
2022-11-15T10:02:48.372Z,81.70
2022-11-15T10:03:48.359Z,81.50
2022-11-15T10:04:48.344Z,81.40
2022-11-15T10:05:48.334Z,81.09
2022-11-15T10:06:48.359Z,81.80
2022-11-15T10:07:48.307Z,80.99
2022-11-15T10:08:48.296Z,80.99
2022-11-15T10:09:48.300Z,80.99
2022-11-15T10:11:48.252Z,81.06
2022-11-15T10:12:48.241Z,80.75
2022-11-15T10:13:48.227Z,80.45
2022-11-15T10:14:54.225Z,79.63
2022-11-15T10:15:48.201Z,79.63
2022-11-15T10:16:48.193Z,79.67
2022-11-15T10:17:48.176Z,80.59
2022-11-15T10:18:48.167Z,80.38
2022-11-15T10:19:48.146Z,80.79
2022-11-15T10:20:48.136Z,80.69
2022-11-15T10:22:48.110Z,80.62
2022-11-15T10:23:48.096Z,80.26
2022-11-15T10:24:48.084Z,80.76
2022-11-15T10:25:48.093Z,80.96
2022-11-15T10:26:48.057Z,80.96
2022-11-15T10:27:48.045Z,80.15
2022-11-15T10:28:48.033Z,80.15
2022-11-15T10:29:48.018Z,79.75
2022-11-15T10:30:48.007Z,79.34
2022-11-15T10:31:48.000Z,80.15
2022-11-15T10:33:47.965Z,79.95
2022-11-15T10:34:47.954Z,79.65
2022-11-15T10:35:47.939Z,80.26
2022-11-15T10:36:50.327Z,79.85
2022-11-15T10:37:47.914Z,79.14
2022-11-15T10:38:47.903Z,79.04
2022-11-15T10:39:47.889Z,79.14
2022-11-15T10:40:47.876Z,79.65
2022-11-15T10:41:47.887Z,79.24
2022-11-15T10:42:47.852Z,78.63
2022-11-15T10:44:47.826Z,77.48
2022-11-15T10:45:47.814Z,77.78
2022-11-15T10:46:48.139Z,76.94
2022-11-15T10:47:47.993Z,77.55
2022-11-15T10:48:47.776Z,77.34
2022-11-15T10:49:47.760Z,76.73
2022-11-15T10:50:47.750Z,76.59
2022-11-15T10:51:47.733Z,75.78
2022-11-15T10:52:47.722Z,74.26
2022-11-15T10:53:47.706Z,74.43
2022-11-15T10:55:47.680Z,74.54
2022-11-15T10:56:47.669Z,73.59
2022-11-15T10:57:47.683Z,73.35
2022-11-15T10:58:47.643Z,72.17
2022-11-15T10:59:47.629Z,71.06
2022-11-15T11:00:47.621Z,71.43
2022-11-15T11:01:47.691Z,70.19
2022-11-15T11:02:47.597Z,69.14
2022-11-15T11:03:47.605Z,68.70
2022-11-15T11:04:47.564Z,68.23
2022-11-15T11:06:47.557Z,69.31
2022-11-15T11:07:47.524Z,70.55
2022-11-15T11:08:47.512Z,70.45
2022-11-15T11:09:47.507Z,71.19
2022-11-15T11:10:52.772Z,71.30
2022-11-15T11:11:49.473Z,71.70
2022-11-15T11:12:47.463Z,71.94
2022-11-15T11:13:47.474Z,72.37
2022-11-15T11:14:47.436Z,73.18
2022-11-15T11:15:47.424Z,72.88
2022-11-15T11:17:47.399Z,72.54
2022-11-15T11:18:47.387Z,72.41
2022-11-15T11:19:47.374Z,72.50
2022-11-15T11:20:47.363Z,72.27
2022-11-15T11:21:47.348Z,71.80
2022-11-15T11:22:47.339Z,72.74
2022-11-15T11:23:47.322Z,73.35
2022-11-15T11:24:47.316Z,72.94
2022-11-15T11:25:47.300Z,73.86
2022-11-15T11:26:47.287Z,74.02
2022-11-15T11:28:47.262Z,72.98
2022-11-15T11:29:47.280Z,72.98
2022-11-15T11:30:47.240Z,72.57
2022-11-15T11:31:47.224Z,72.98
2022-11-15T11:32:50.228Z,72.74
2022-11-15T11:33:47.199Z,72.44
2022-11-15T11:34:47.194Z,72.03
2022-11-15T11:35:47.177Z,72.24
2022-11-15T11:36:47.164Z,72.88
2022-11-15T11:37:47.152Z,72.57
2022-11-15T11:39:47.123Z,72.57
2022-11-15T11:40:47.111Z,72.50
2022-11-15T11:41:47.103Z,72.61
2022-11-15T11:42:47.088Z,73.62
2022-11-15T11:43:47.072Z,73.72
2022-11-15T11:44:47.066Z,73.18
2022-11-15T11:45:47.531Z,73.32
2022-11-15T11:46:47.036Z,73.62
2022-11-15T11:47:47.023Z,73.82
2022-11-15T11:48:47.014Z,73.01
2022-11-15T11:50:46.988Z,73.08
2022-11-15T11:51:46.973Z,72.64
2022-11-15T11:52:46.962Z,70.92
2022-11-15T11:53:46.946Z,71.13
2022-11-15T11:54:46.935Z,71.86
2022-11-15T11:55:46.920Z,72.21
2022-11-15T11:56:46.907Z,72.94
2022-11-15T11:57:46.901Z,72.68
2022-11-15T11:58:46.882Z,71.53
2022-11-15T11:59:46.869Z,69.68
2022-11-15T12:01:47.086Z,68.70
2022-11-15T12:02:47.013Z,69.04
2022-11-15T12:03:46.833Z,69.85
2022-11-15T12:04:46.806Z,69.85
2022-11-15T12:05:46.795Z,70.25
2022-11-15T12:06:46.826Z,68.94
2022-11-15T12:07:46.765Z,68.20
2022-11-15T12:08:46.759Z,66.66
2022-11-15T12:09:46.741Z,66.36
2022-11-15T12:10:46.730Z,66.66
2022-11-15T12:12:46.706Z,67.90
2022-11-15T12:13:46.693Z,67.50
2022-11-15T12:14:46.680Z,67.70
2022-11-15T12:15:46.667Z,68.24
2022-11-15T12:16:46.658Z,69.21
2022-11-15T12:17:46.661Z,70.05
2022-11-15T12:18:46.628Z,71.13
2022-11-15T12:19:46.612Z,72.54
2022-11-15T12:20:46.601Z,72.64
2022-11-15T12:21:46.590Z,72.54
2022-11-15T12:23:46.563Z,73.28
2022-11-15T12:24:46.552Z,74.13
2022-11-15T12:25:46.537Z,74.13
2022-11-15T12:26:46.525Z,73.62
2022-11-15T12:27:46.509Z,73.86
2022-11-15T12:29:05.782Z,74.30
2022-11-15T12:29:46.483Z,74.70
2022-11-15T12:30:46.472Z,74.81
2022-11-15T12:31:46.461Z,75.10
2022-11-15T12:32:46.447Z,75.54
2022-11-15T12:34:46.419Z,75.25
2022-11-15T12:35:46.405Z,76.39
2022-11-15T12:36:46.395Z,76.50
2022-11-15T12:37:46.381Z,76.70
2022-11-15T12:38:46.369Z,76.19
2022-11-15T12:39:46.355Z,76.46
2022-11-15T12:40:46.342Z,76.19
2022-11-15T12:41:46.329Z,76.29
2022-11-15T12:42:46.322Z,76.90
2022-11-15T12:43:46.304Z,76.70
2022-11-15T12:45:46.276Z,77.00
2022-11-15T12:46:46.265Z,77.10
2022-11-15T12:47:46.251Z,77.00
2022-11-15T12:48:46.238Z,76.90
2022-11-15T12:49:46.246Z,77.10
2022-11-15T12:50:46.211Z,76.90
2022-11-15T12:51:46.197Z,77.00
2022-11-15T12:52:46.186Z,77.20
2022-11-15T12:53:46.174Z,77.10
2022-11-15T12:54:46.161Z,77.64
2022-11-15T12:56:46.360Z,77.30
2022-11-15T12:58:46.117Z,77.20
2022-11-15T12:59:46.094Z,77.30
2022-11-15T13:00:46.082Z,77.51
2022-11-15T13:01:46.112Z,77.06
2022-11-15T13:02:46.057Z,76.46
2022-11-15T13:03:46.042Z,76.26
2022-11-15T13:04:46.031Z,76.66
2022-11-15T13:05:46.039Z,76.36
2022-11-15T13:07:45.991Z,76.50
2022-11-15T13:08:45.979Z,76.86
2022-11-15T13:09:45.961Z,76.77
2022-11-15T13:10:45.953Z,77.00
2022-11-15T13:11:45.939Z,76.59
2022-11-15T13:12:45.962Z,77.04
2022-11-15T13:13:45.914Z,77.14
2022-11-15T13:14:45.903Z,77.68
2022-11-15T13:15:45.891Z,77.78
2022-11-15T13:16:45.874Z,77.78
2022-11-15T13:18:45.855Z,77.99
2022-11-15T13:19:45.834Z,77.92
2022-11-15T13:20:45.824Z,77.92
2022-11-15T13:21:45.832Z,78.02
2022-11-15T13:22:45.797Z,77.78
2022-11-15T13:23:45.783Z,77.78
2022-11-15T13:24:45.771Z,77.58
2022-11-15T13:25:45.756Z,77.62
2022-11-15T13:26:45.745Z,77.78
2022-11-15T13:27:45.742Z,77.89
2022-11-15T13:29:45.705Z,78.29
2022-11-15T13:30:45.711Z,78.69
2022-11-15T13:31:45.681Z,78.63
2022-11-15T13:32:45.667Z,78.83
2022-11-15T13:33:45.661Z,78.74
2022-11-15T13:34:51.378Z,78.80
2022-11-15T13:35:45.625Z,78.90
2022-11-15T13:36:45.617Z,79.00
2022-11-15T13:37:45.624Z,78.96
2022-11-15T13:38:45.589Z,78.86
2022-11-15T13:40:45.563Z,78.86
2022-11-15T13:41:45.549Z,78.76
2022-11-15T13:42:45.946Z,79.27
2022-11-15T13:43:45.523Z,79.07
2022-11-15T13:44:45.513Z,79.41
2022-11-15T13:45:45.497Z,79.81
2022-11-15T13:46:45.487Z,79.41
2022-11-15T13:47:45.471Z,79.81
2022-11-15T13:48:45.460Z,79.91
2022-11-15T13:49:45.445Z,80.01
2022-11-15T13:51:45.420Z,80.66
2022-11-15T13:52:45.408Z,81.17
2022-11-15T13:53:45.417Z,81.07
2022-11-15T13:54:45.519Z,81.07
2022-11-15T13:55:45.367Z,80.76
2022-11-15T13:56:45.356Z,80.56
2022-11-15T13:57:45.342Z,80.96
2022-11-15T13:58:45.333Z,80.87
2022-11-15T13:59:45.316Z,80.96
2022-11-15T14:00:45.304Z,81.41
2022-11-15T14:02:45.279Z,81.57
2022-11-15T14:03:45.264Z,81.27
2022-11-15T14:04:45.254Z,81.07
2022-11-15T14:05:45.239Z,80.96
2022-11-15T14:06:45.235Z,81.17
2022-11-15T14:07:45.211Z,81.41
2022-11-15T14:08:45.252Z,81.51
2022-11-15T14:09:45.228Z,81.07
2022-11-15T14:10:45.174Z,80.96
2022-11-15T14:11:45.160Z,80.87